createdAt,value
2022-07-26T00:01:01.230Z,52.33
2022-07-26T00:02:03.505Z,52.30
2022-07-26T00:03:05.139Z,52.30
2022-07-26T00:04:08.174Z,52.48
2022-07-26T00:05:09.720Z,52.25
2022-07-26T00:06:11.276Z,52.40
2022-07-26T00:07:12.768Z,52.48
2022-07-26T00:08:14.311Z,52.40
2022-07-26T00:09:16.268Z,52.44
2022-07-26T00:10:17.732Z,52.45
2022-07-26T00:11:20.067Z,52.52
2022-07-26T00:12:22.018Z,52.31
2022-07-26T00:13:23.491Z,52.43
2022-07-26T00:14:25.119Z,52.49
2022-07-26T00:15:26.635Z,52.16
2022-07-26T00:16:28.909Z,52.19
2022-07-26T00:17:30.808Z,51.85
2022-07-26T00:18:32.469Z,52.03
2022-07-26T00:19:52.476Z,52.26
2022-07-26T00:21:12.922Z,52.19
2022-07-26T00:22:33.061Z,52.42
2022-07-26T00:23:34.693Z,52.56
2022-07-26T00:24:36.182Z,52.29
2022-07-26T00:25:38.152Z,52.28
2022-07-26T00:26:40.059Z,52.22
2022-07-26T00:27:41.587Z,52.46
2022-07-26T00:28:43.329Z,52.75
2022-07-26T00:29:44.801Z,52.70
2022-07-26T00:30:46.865Z,52.41
2022-07-26T00:31:48.876Z,52.26
2022-07-26T00:32:50.993Z,52.53
2022-07-26T00:33:52.900Z,52.49
2022-07-26T00:34:54.834Z,52.78
2022-07-26T00:35:56.282Z,52.59
2022-07-26T00:36:57.732Z,52.48
2022-07-26T00:38:00.075Z,52.20
2022-07-26T00:39:01.537Z,52.48
2022-07-26T00:40:04.150Z,52.55
2022-07-26T00:41:06.327Z,52.28
2022-07-26T00:42:08.244Z,52.29
2022-07-26T00:43:09.724Z,52.35
2022-07-26T00:44:11.513Z,52.49
2022-07-26T00:45:14.493Z,52.36
2022-07-26T00:46:16.072Z,52.19
2022-07-26T00:47:18.290Z,52.27
2022-07-26T00:48:20.294Z,52.51
2022-07-26T00:49:21.837Z,51.73
2022-07-26T00:51:46.531Z,52.05
2022-07-26T00:52:50.268Z,51.95
2022-07-26T00:53:51.908Z,52.03
2022-07-26T00:54:56.110Z,51.95
2022-07-26T00:55:58.739Z,51.78
2022-07-26T00:57:00.578Z,51.77
2022-07-26T00:58:02.235Z,52.24
2022-07-26T00:59:03.751Z,51.85
2022-07-26T01:00:08.178Z,52.22
2022-07-26T01:01:10.738Z,51.74
2022-07-26T01:02:12.380Z,51.87
2022-07-26T01:03:14.297Z,51.92
2022-07-26T01:04:16.084Z,51.70
2022-07-26T01:05:17.656Z,51.43
2022-07-26T01:06:22.795Z,51.26
2022-07-26T01:07:29.656Z,51.64
2022-07-26T01:08:31.150Z,51.63
2022-07-26T01:09:32.942Z,51.40
2022-07-26T01:10:34.807Z,51.61
2022-07-26T01:11:36.681Z,51.69
2022-07-26T01:12:42.578Z,51.95
2022-07-26T01:13:49.218Z,51.59
2022-07-26T01:14:50.732Z,51.55
2022-07-26T01:15:52.394Z,51.46
2022-07-26T01:16:54.510Z,51.49
2022-07-26T01:17:55.966Z,51.44
2022-07-26T01:18:57.403Z,51.49
2022-07-26T01:19:58.866Z,51.39
2022-07-26T01:21:09.634Z,51.47
2022-07-26T01:22:15.858Z,51.22
2022-07-26T01:23:17.524Z,51.71
2022-07-26T01:24:19.071Z,51.60
2022-07-26T01:25:33.020Z,51.79
2022-07-26T01:26:45.174Z,51.68
2022-07-26T01:27:46.702Z,51.72
2022-07-26T01:28:49.505Z,51.85
2022-07-26T01:29:51.837Z,52.02
2022-07-26T01:30:53.568Z,51.91
2022-07-26T01:31:55.339Z,52.06
2022-07-26T01:32:56.887Z,51.71
2022-07-26T01:33:58.433Z,51.57
2022-07-26T01:34:59.965Z,51.90
2022-07-26T01:36:01.935Z,51.55
2022-07-26T01:37:04.094Z,51.46
2022-07-26T01:38:05.615Z,51.44
2022-07-26T01:39:07.299Z,51.41
2022-07-26T01:40:10.326Z,51.42
2022-07-26T01:41:11.802Z,51.30
2022-07-26T01:42:13.673Z,51.33
2022-07-26T01:43:15.149Z,51.60
2022-07-26T01:44:16.718Z,51.37
2022-07-26T01:45:18.192Z,51.53
2022-07-26T01:46:19.788Z,51.75
2022-07-26T01:47:21.676Z,51.59
2022-07-26T01:48:23.321Z,51.39
2022-07-26T01:49:24.780Z,51.65
2022-07-26T01:50:26.396Z,52.02
2022-07-26T01:51:28.193Z,51.89
2022-07-26T01:52:29.998Z,51.68
2022-07-26T01:53:31.618Z,52.13
2022-07-26T01:54:33.162Z,52.28
2022-07-26T01:55:35.628Z,52.56
2022-07-26T01:56:37.177Z,52.32
2022-07-26T01:57:39.037Z,52.40
2022-07-26T01:58:43.241Z,52.41
2022-07-26T01:59:44.732Z,52.38
2022-07-26T02:00:46.309Z,52.77
2022-07-26T02:01:47.969Z,52.52
2022-07-26T02:02:50.052Z,52.19
2022-07-26T02:03:51.633Z,52.24
2022-07-26T02:04:58.881Z,52.17
2022-07-26T02:06:00.367Z,51.86
2022-07-26T02:07:03.983Z,52.14
2022-07-26T02:08:07.243Z,52.62
2022-07-26T02:09:13.260Z,52.35
2022-07-26T02:10:15.553Z,52.63
2022-07-26T02:11:17.129Z,52.65
2022-07-26T02:12:18.944Z,52.71
2022-07-26T02:13:20.444Z,52.64
2022-07-26T02:14:25.602Z,52.71
2022-07-26T02:15:29.443Z,52.74
2022-07-26T02:16:30.915Z,52.80
2022-07-26T02:17:33.066Z,52.67
2022-07-26T02:18:35.330Z,52.52
2022-07-26T02:19:37.766Z,52.33
2022-07-26T02:20:39.234Z,52.45
2022-07-26T02:21:40.768Z,52.67
2022-07-26T02:22:42.568Z,52.36
2022-07-26T02:23:44.050Z,52.58
2022-07-26T02:24:46.843Z,52.77
2022-07-26T02:25:48.572Z,52.59
2022-07-26T02:26:50.331Z,52.49
2022-07-26T02:27:52.439Z,52.53
2022-07-26T02:28:53.875Z,52.74
2022-07-26T02:29:55.459Z,52.34
2022-07-26T02:30:57.230Z,52.43
2022-07-26T02:31:59.472Z,52.16
2022-07-26T02:33:01.313Z,52.27
2022-07-26T02:34:02.922Z,52.08
2022-07-26T02:35:04.746Z,52.44
2022-07-26T02:36:06.339Z,52.09
2022-07-26T02:37:07.881Z,51.96
2022-07-26T02:38:12.497Z,52.38
2022-07-26T02:39:14.512Z,51.85
2022-07-26T02:40:19.337Z,52.07
2022-07-26T02:41:21.230Z,52.40
2022-07-26T02:42:22.735Z,52.20
2022-07-26T02:43:24.246Z,51.92
2022-07-26T02:44:26.792Z,52.28
2022-07-26T02:45:28.575Z,52.30
2022-07-26T02:46:30.122Z,52.07
2022-07-26T02:47:33.271Z,52.16
2022-07-26T02:48:34.738Z,51.81
2022-07-26T02:49:36.381Z,52.37
2022-07-26T02:50:37.969Z,52.55
2022-07-26T02:51:39.432Z,52.32
2022-07-26T02:52:41.281Z,52.15
2022-07-26T02:53:42.803Z,52.38
2022-07-26T02:54:44.654Z,52.64
2022-07-26T02:55:46.150Z,52.24
2022-07-26T02:56:47.641Z,52.12
2022-07-26T02:57:49.956Z,51.76
2022-07-26T02:58:51.472Z,51.85
2022-07-26T02:59:52.942Z,52.01
2022-07-26T03:00:54.685Z,52.39
2022-07-26T03:01:56.327Z,52.18
2022-07-26T03:02:58.331Z,52.23
2022-07-26T03:03:59.845Z,52.23
2022-07-26T03:05:02.350Z,51.72
2022-07-26T03:06:04.184Z,52.45
2022-07-26T03:07:05.622Z,51.96
2022-07-26T03:08:08.018Z,51.87
2022-07-26T03:09:09.484Z,51.97
2022-07-26T03:10:11.021Z,52.19
2022-07-26T03:11:12.503Z,52.31
2022-07-26T03:12:13.996Z,51.94
2022-07-26T03:13:15.813Z,52.21
2022-07-26T03:14:17.302Z,52.05
2022-07-26T03:15:18.801Z,52.07
2022-07-26T03:16:20.567Z,52.15
2022-07-26T03:17:24.358Z,52.19
2022-07-26T03:18:25.847Z,52.16
2022-07-26T03:19:27.288Z,51.80
2022-07-26T03:20:28.914Z,51.94
2022-07-26T03:21:30.414Z,51.73
2022-07-26T03:22:31.915Z,51.77
2022-07-26T03:23:34.566Z,51.65
2022-07-26T03:24:36.065Z,51.40
2022-07-26T03:25:37.723Z,51.54
2022-07-26T03:26:39.494Z,51.04
2022-07-26T03:27:41.313Z,51.19
2022-07-26T03:28:44.802Z,51.34
2022-07-26T03:29:46.335Z,51.55
2022-07-26T03:30:47.949Z,51.78
2022-07-26T03:31:49.523Z,51.21
2022-07-26T03:32:51.198Z,51.37
2022-07-26T03:33:53.017Z,51.13
2022-07-26T03:34:54.491Z,51.52
2022-07-26T03:35:56.150Z,51.19
2022-07-26T03:36:57.649Z,51.29
2022-07-26T03:37:59.182Z,51.27
2022-07-26T03:39:00.988Z,50.91
2022-07-26T03:40:02.660Z,51.10
2022-07-26T03:41:04.173Z,51.09
2022-07-26T03:42:05.752Z,50.82
2022-07-26T03:43:07.281Z,50.83
2022-07-26T03:44:09.500Z,50.87
2022-07-26T03:45:12.062Z,50.97
2022-07-26T03:46:13.579Z,50.74
2022-07-26T03:47:15.105Z,50.82
2022-07-26T03:48:16.596Z,50.87
2022-07-26T03:49:18.505Z,50.64
2022-07-26T03:50:20.041Z,50.72
2022-07-26T03:51:21.515Z,50.82
2022-07-26T03:52:22.954Z,50.63
2022-07-26T03:53:24.628Z,50.69
2022-07-26T03:54:27.011Z,50.61
2022-07-26T03:55:47.193Z,50.58
2022-07-26T03:56:48.735Z,50.32
2022-07-26T03:57:50.229Z,50.61
2022-07-26T03:58:52.214Z,50.18
2022-07-26T03:59:53.781Z,50.42
2022-07-26T04:00:55.272Z,50.66
2022-07-26T04:01:56.847Z,50.54
2022-07-26T04:02:58.463Z,50.53
2022-07-26T04:04:00.050Z,50.73
2022-07-26T04:05:02.565Z,50.66
2022-07-26T04:06:05.204Z,50.71
2022-07-26T04:07:07.372Z,50.51
2022-07-26T04:08:10.943Z,50.46
2022-07-26T04:09:13.046Z,50.54
2022-07-26T04:10:15.814Z,50.66
2022-07-26T04:11:20.119Z,50.98
2022-07-26T04:12:29.765Z,50.72
2022-07-26T04:13:31.224Z,51.25
2022-07-26T04:14:32.737Z,51.05
2022-07-26T04:15:34.248Z,51.30
2022-07-26T04:16:40.054Z,51.18
2022-07-26T04:17:45.043Z,50.75
2022-07-26T04:18:46.586Z,50.62
2022-07-26T04:19:48.507Z,50.98
2022-07-26T04:20:50.097Z,51.03
2022-07-26T04:21:51.575Z,51.10
2022-07-26T04:22:53.069Z,50.65
2022-07-26T04:23:54.710Z,50.86
2022-07-26T04:24:56.534Z,50.81
2022-07-26T04:25:58.077Z,50.95
2022-07-26T04:26:59.611Z,51.01
2022-07-26T04:28:02.091Z,50.80
2022-07-26T04:29:03.636Z,51.10
2022-07-26T04:30:11.080Z,50.77
2022-07-26T04:31:16.605Z,50.22
2022-07-26T04:32:18.176Z,50.17
2022-07-26T04:33:19.675Z,50.53
2022-07-26T04:34:21.481Z,50.20
2022-07-26T04:35:22.973Z,49.91
2022-07-26T04:36:24.424Z,49.90
2022-07-26T04:37:25.912Z,49.76
2022-07-26T04:38:27.377Z,50.08
2022-07-26T04:39:29.651Z,50.13
2022-07-26T04:40:33.674Z,49.80
2022-07-26T04:41:35.239Z,49.94
2022-07-26T04:42:37.743Z,49.76
2022-07-26T04:43:39.210Z,49.92
2022-07-26T04:44:41.083Z,50.30
2022-07-26T04:45:43.397Z,49.86
2022-07-26T04:46:45.930Z,49.43
2022-07-26T04:47:50.279Z,49.36
2022-07-26T04:48:52.110Z,49.39
2022-07-26T04:49:53.633Z,49.29
2022-07-26T04:50:55.185Z,49.23
2022-07-26T04:51:59.357Z,49.44
2022-07-26T04:53:01.237Z,48.94
2022-07-26T04:54:03.038Z,49.08
2022-07-26T04:55:06.794Z,48.95
2022-07-26T04:56:08.522Z,48.96
2022-07-26T04:57:09.968Z,49.70
2022-07-26T04:58:11.851Z,49.50
2022-07-26T04:59:18.474Z,49.63
2022-07-26T05:00:26.588Z,49.87
2022-07-26T05:01:28.105Z,50.02
2022-07-26T05:02:29.713Z,50.84
2022-07-26T05:03:31.793Z,51.34
2022-07-26T05:04:33.652Z,51.36
2022-07-26T05:05:35.144Z,51.43
2022-07-26T05:06:36.708Z,51.47
2022-07-26T05:07:41.723Z,51.72
2022-07-26T05:08:43.672Z,52.29
2022-07-26T05:09:45.143Z,53.03
2022-07-26T05:10:50.414Z,53.30
2022-07-26T05:11:56.633Z,53.34
2022-07-26T05:12:58.264Z,53.48
2022-07-26T05:14:00.068Z,53.26
2022-07-26T05:15:01.927Z,53.47
2022-07-26T05:16:11.913Z,52.76
2022-07-26T05:17:13.913Z,52.71
2022-07-26T05:18:19.354Z,53.35
2022-07-26T05:19:25.098Z,53.69
2022-07-26T05:20:27.441Z,54.15
2022-07-26T05:21:28.986Z,53.53
2022-07-26T05:22:30.509Z,53.34
2022-07-26T05:23:32.142Z,53.00
2022-07-26T05:24:33.983Z,52.73
2022-07-26T05:25:36.526Z,53.16
2022-07-26T05:26:38.024Z,53.29
2022-07-26T05:27:41.632Z,52.42
2022-07-26T05:28:43.177Z,52.44
2022-07-26T05:29:44.946Z,52.21
2022-07-26T05:30:47.046Z,52.24
2022-07-26T05:31:48.541Z,51.90
2022-07-26T05:32:50.004Z,51.98
2022-07-26T05:33:51.490Z,51.73
2022-07-26T05:34:53.234Z,52.51
2022-07-26T05:35:54.671Z,52.57
2022-07-26T05:36:57.162Z,52.59
2022-07-26T05:37:58.658Z,52.38
2022-07-26T05:39:00.119Z,52.09
2022-07-26T05:40:03.014Z,51.97
2022-07-26T05:41:05.480Z,51.58
2022-07-26T05:42:07.061Z,51.85
2022-07-26T05:43:08.510Z,51.76
2022-07-26T05:44:12.861Z,51.66
2022-07-26T05:45:14.922Z,51.05
2022-07-26T05:46:16.466Z,51.16
2022-07-26T05:47:18.098Z,51.16
2022-07-26T05:48:19.644Z,50.84
2022-07-26T05:49:21.479Z,50.98
2022-07-26T05:50:23.350Z,50.90
2022-07-26T05:51:24.783Z,51.10
2022-07-26T05:52:26.272Z,51.18
2022-07-26T05:53:27.767Z,50.71
2022-07-26T05:54:29.257Z,51.15
2022-07-26T05:55:31.107Z,51.11
2022-07-26T05:56:32.572Z,51.10
2022-07-26T05:57:34.091Z,51.05
2022-07-26T05:58:36.456Z,50.70
2022-07-26T05:59:37.949Z,50.76
2022-07-26T06:00:39.802Z,51.02
2022-07-26T06:01:41.328Z,50.59
2022-07-26T06:02:42.902Z,50.53
2022-07-26T06:03:44.489Z,50.81
2022-07-26T06:04:47.597Z,50.38
2022-07-26T06:05:51.382Z,50.51
2022-07-26T06:06:54.507Z,50.67
2022-07-26T06:07:55.971Z,50.63
2022-07-26T06:08:57.538Z,50.42
2022-07-26T06:09:59.066Z,50.18
2022-07-26T06:11:00.927Z,49.97
2022-07-26T06:12:02.520Z,50.18
2022-07-26T06:13:03.988Z,50.29
2022-07-26T06:14:05.522Z,50.49
2022-07-26T06:15:15.690Z,50.77
2022-07-26T06:16:18.041Z,50.58
2022-07-26T06:17:19.737Z,50.52
2022-07-26T06:18:21.311Z,50.08
2022-07-26T06:19:22.839Z,50.09
2022-07-26T06:20:24.903Z,49.91
2022-07-26T06:21:26.537Z,50.11
2022-07-26T06:22:27.982Z,49.88
2022-07-26T06:23:33.909Z,50.11
2022-07-26T06:24:36.688Z,50.13
2022-07-26T06:25:38.726Z,50.04
2022-07-26T06:26:40.625Z,50.13
2022-07-26T06:27:42.064Z,50.24
2022-07-26T06:28:44.081Z,50.44
2022-07-26T06:29:48.423Z,50.04
2022-07-26T06:30:50.383Z,49.63
2022-07-26T06:31:51.956Z,50.11
2022-07-26T06:32:53.490Z,51.07
2022-07-26T06:33:54.981Z,51.48
2022-07-26T06:34:56.419Z,50.85
2022-07-26T06:35:58.503Z,50.61
2022-07-26T06:37:00.142Z,50.45
2022-07-26T06:38:02.356Z,51.04
2022-07-26T06:39:04.152Z,51.77
2022-07-26T06:40:06.853Z,51.78
2022-07-26T06:41:08.876Z,51.92
2022-07-26T06:42:10.339Z,51.67
2022-07-26T06:43:11.781Z,50.90
2022-07-26T06:44:13.268Z,50.95
2022-07-26T06:45:14.736Z,50.73
2022-07-26T06:46:17.341Z,50.54
2022-07-26T06:47:18.970Z,50.12
2022-07-26T06:48:20.829Z,50.36
2022-07-26T06:49:23.275Z,50.16
2022-07-26T06:50:25.609Z,50.05
2022-07-26T06:51:27.699Z,50.57
2022-07-26T06:52:29.311Z,50.32
2022-07-26T06:53:30.866Z,49.89
2022-07-26T06:54:32.348Z,49.59
2022-07-26T06:55:33.819Z,48.77
2022-07-26T06:56:35.683Z,48.97
2022-07-26T06:57:44.761Z,49.63
2022-07-26T06:58:51.726Z,49.30
2022-07-26T06:59:53.807Z,49.94
2022-07-26T07:00:55.820Z,50.40
2022-07-26T07:02:00.242Z,49.44
2022-07-26T07:03:02.066Z,48.87
2022-07-26T07:04:03.567Z,48.46
2022-07-26T07:05:05.637Z,48.18
2022-07-26T07:06:07.570Z,47.89
2022-07-26T07:07:09.134Z,47.58
2022-07-26T07:08:11.070Z,47.45
2022-07-26T07:09:12.915Z,47.21
2022-07-26T07:10:16.320Z,46.97
2022-07-26T07:11:21.044Z,47.01
2022-07-26T07:12:22.505Z,46.75
2022-07-26T07:13:24.748Z,46.87
2022-07-26T07:14:26.266Z,47.31
2022-07-26T07:15:27.779Z,46.58
2022-07-26T07:16:29.759Z,46.71
2022-07-26T07:17:31.312Z,46.58
2022-07-26T07:18:32.973Z,45.61
2022-07-26T07:19:38.284Z,45.05
2022-07-26T07:20:40.925Z,45.29
2022-07-26T07:21:42.483Z,44.66
2022-07-26T07:22:44.027Z,44.25
2022-07-26T07:23:45.676Z,44.23
2022-07-26T07:24:47.157Z,44.06
2022-07-26T07:25:50.827Z,44.71
2022-07-26T07:26:52.836Z,44.59
2022-07-26T07:27:54.353Z,44.59
2022-07-26T07:28:56.752Z,45.19
2022-07-26T07:29:58.309Z,45.25
2022-07-26T07:31:00.690Z,45.26
2022-07-26T07:32:03.473Z,45.10
2022-07-26T07:33:05.369Z,44.63
2022-07-26T07:34:07.775Z,44.26
2022-07-26T07:35:12.997Z,44.13
2022-07-26T07:36:14.985Z,43.66
2022-07-26T07:37:19.975Z,43.90
2022-07-26T07:38:22.421Z,44.03
2022-07-26T07:39:24.303Z,43.97
2022-07-26T07:40:36.248Z,43.94
2022-07-26T07:41:39.207Z,43.64
2022-07-26T07:42:40.681Z,43.64
2022-07-26T07:43:42.149Z,43.51
2022-07-26T07:44:43.667Z,43.31
2022-07-26T07:45:45.119Z,43.49
2022-07-26T07:46:50.544Z,44.34
2022-07-26T07:47:52.082Z,45.19
2022-07-26T07:48:53.992Z,44.95
2022-07-26T07:49:55.582Z,44.16
2022-07-26T07:50:57.120Z,44.16
2022-07-26T07:51:58.893Z,44.02
2022-07-26T07:53:01.991Z,43.84
2022-07-26T07:54:05.911Z,43.72
2022-07-26T07:55:28.612Z,43.97
2022-07-26T07:56:29.885Z,43.90
2022-07-26T07:57:31.784Z,43.66
2022-07-26T07:58:33.591Z,43.84
2022-07-26T07:59:39.002Z,43.90
2022-07-26T08:00:41.344Z,43.61
2022-07-26T08:01:43.289Z,43.11
2022-07-26T08:02:47.172Z,42.74
2022-07-26T08:03:50.368Z,42.89
2022-07-26T08:04:54.047Z,43.02
2022-07-26T08:05:55.507Z,42.83
2022-07-26T08:06:58.100Z,42.54
2022-07-26T08:07:59.748Z,42.44
2022-07-26T08:09:01.425Z,42.29
2022-07-26T08:10:06.130Z,42.37
2022-07-26T08:11:08.023Z,42.13
2022-07-26T08:12:09.667Z,42.46
2022-07-26T08:13:11.289Z,41.21
2022-07-26T08:14:12.751Z,40.89
2022-07-26T08:15:14.728Z,40.29
2022-07-26T08:16:18.111Z,39.03
2022-07-26T08:17:20.980Z,39.97
2022-07-26T08:18:24.872Z,40.66
2022-07-26T08:19:26.468Z,40.97
2022-07-26T08:20:42.343Z,40.70
2022-07-26T08:21:46.069Z,40.86
2022-07-26T08:22:48.740Z,41.34
2022-07-26T08:23:50.203Z,41.12
2022-07-26T08:24:52.446Z,40.49
2022-07-26T08:25:58.809Z,39.49
2022-07-26T08:27:03.876Z,39.43
2022-07-26T08:28:05.412Z,39.17
2022-07-26T08:29:06.968Z,39.16
2022-07-26T08:30:08.914Z,39.51
2022-07-26T08:31:10.476Z,39.49
2022-07-26T08:32:12.015Z,39.35
2022-07-26T08:33:13.491Z,39.63
2022-07-26T08:34:15.188Z,39.35
2022-07-26T08:35:19.507Z,38.42
2022-07-26T08:36:21.695Z,39.08
2022-07-26T08:37:23.674Z,38.68
2022-07-26T08:38:25.314Z,39.07
2022-07-26T08:39:26.861Z,38.91
2022-07-26T08:40:28.347Z,38.59
2022-07-26T08:41:30.767Z,39.05
2022-07-26T08:42:32.598Z,39.70
2022-07-26T08:43:52.362Z,39.94
2022-07-26T08:44:54.826Z,40.29
2022-07-26T08:46:01.716Z,39.88
2022-07-26T08:47:03.771Z,39.58
2022-07-26T08:48:20.961Z,40.71
2022-07-26T08:49:22.567Z,40.21
2022-07-26T08:50:24.963Z,39.45
2022-07-26T08:51:26.858Z,37.68
2022-07-26T08:52:29.313Z,37.99
2022-07-26T08:53:31.126Z,38.19
2022-07-26T08:54:33.307Z,37.01
2022-07-26T08:55:57.181Z,37.65
2022-07-26T08:56:58.525Z,37.92
2022-07-26T08:58:04.465Z,38.42
2022-07-26T08:59:19.149Z,37.98
2022-07-26T09:00:29.627Z,37.36
2022-07-26T09:01:31.387Z,37.01
2022-07-26T09:02:41.255Z,37.41
2022-07-26T09:03:44.412Z,36.94
2022-07-26T09:04:46.429Z,36.11
2022-07-26T09:05:47.965Z,36.23
2022-07-26T09:07:02.041Z,36.13
2022-07-26T09:08:25.729Z,35.69
2022-07-26T09:09:28.014Z,35.93
2022-07-26T09:10:38.890Z,36.03
2022-07-26T09:11:40.801Z,35.84
2022-07-26T09:12:42.862Z,36.76
2022-07-26T09:13:53.316Z,36.98
2022-07-26T09:14:55.007Z,36.87
2022-07-26T09:16:09.914Z,36.64
2022-07-26T09:17:11.384Z,37.16
2022-07-26T09:18:27.157Z,36.63
2022-07-26T09:19:28.973Z,37.51
2022-07-26T09:20:32.252Z,37.90
2022-07-26T09:21:38.807Z,37.13
2022-07-26T09:23:04.456Z,37.40
2022-07-26T09:24:06.658Z,37.70
2022-07-26T09:25:22.130Z,38.08
2022-07-26T09:26:23.839Z,37.76
2022-07-26T09:27:35.821Z,37.91
2022-07-26T09:28:37.407Z,37.85
2022-07-26T09:29:54.032Z,37.69
2022-07-26T09:31:06.283Z,37.66
2022-07-26T09:32:21.175Z,36.95
2022-07-26T09:33:23.543Z,36.18
2022-07-26T09:34:26.044Z,36.90
2022-07-26T09:36:52.321Z,36.86
2022-07-26T09:37:53.802Z,37.73
2022-07-26T09:38:59.015Z,37.33
2022-07-26T09:40:03.596Z,37.69
2022-07-26T09:41:29.165Z,37.91
2022-07-26T09:42:30.640Z,38.03
2022-07-26T09:43:38.321Z,37.92
2022-07-26T09:44:47.917Z,37.81
2022-07-26T09:46:03.044Z,38.16
2022-07-26T09:47:04.745Z,38.46
2022-07-26T09:48:11.441Z,38.86
2022-07-26T09:49:18.372Z,39.20
2022-07-26T09:50:23.321Z,39.36
2022-07-26T09:51:42.592Z,39.38
2022-07-26T09:53:09.723Z,39.48
2022-07-26T09:54:12.045Z,39.53
2022-07-26T09:55:16.396Z,39.58
2022-07-26T09:56:19.792Z,39.50
2022-07-26T09:57:21.563Z,39.57
2022-07-26T09:58:24.006Z,39.46
2022-07-26T09:59:27.462Z,39.55
2022-07-26T10:00:30.382Z,38.96
2022-07-26T10:01:31.933Z,38.45
2022-07-26T10:02:33.495Z,38.00
2022-07-26T10:03:36.080Z,37.26
2022-07-26T10:04:37.571Z,35.63
2022-07-26T10:05:39.585Z,34.27
2022-07-26T10:06:41.698Z,34.85
2022-07-26T10:07:43.565Z,35.67
2022-07-26T10:08:45.345Z,35.87
2022-07-26T10:09:56.926Z,36.20
2022-07-26T10:11:07.581Z,36.34
2022-07-26T10:12:14.158Z,36.78
2022-07-26T10:13:16.158Z,36.98
2022-07-26T10:14:32.701Z,36.79
2022-07-26T10:15:38.540Z,36.72
2022-07-26T10:16:40.066Z,36.44
2022-07-26T10:17:42.664Z,36.60
2022-07-26T10:18:45.284Z,36.17
2022-07-26T10:19:47.540Z,36.34
2022-07-26T10:20:51.826Z,36.32
2022-07-26T10:22:22.843Z,36.77
2022-07-26T10:23:40.868Z,36.61
2022-07-26T10:24:42.311Z,36.95
2022-07-26T10:25:48.661Z,35.81
2022-07-26T10:26:50.117Z,34.90
2022-07-26T10:27:55.449Z,35.30
2022-07-26T10:29:15.821Z,35.88
2022-07-26T10:30:17.302Z,35.91
2022-07-26T10:31:29.798Z,35.24
2022-07-26T10:32:34.196Z,34.18
2022-07-26T10:33:44.402Z,34.06
2022-07-26T10:34:46.888Z,34.48
2022-07-26T10:35:48.422Z,35.49
2022-07-26T10:36:59.154Z,34.67
2022-07-26T10:38:03.047Z,33.99
2022-07-26T10:39:24.028Z,33.89
2022-07-26T10:40:30.103Z,33.96
2022-07-26T10:41:34.094Z,34.65
2022-07-26T10:42:45.150Z,35.65
2022-07-26T10:44:16.361Z,35.19
2022-07-26T10:45:22.600Z,35.48
2022-07-26T10:46:27.010Z,35.17
2022-07-26T10:47:33.378Z,34.88
2022-07-26T10:48:55.994Z,34.48
2022-07-26T10:49:59.240Z,34.78
2022-07-26T10:51:05.897Z,34.68
2022-07-26T10:52:57.472Z,34.11
2022-07-26T10:54:00.746Z,33.12
2022-07-26T10:55:05.274Z,33.26
2022-07-26T10:56:06.698Z,32.84
2022-07-26T10:57:08.494Z,32.44
2022-07-26T10:58:10.069Z,32.69
2022-07-26T10:59:11.589Z,32.52
2022-07-26T11:00:19.422Z,32.77
2022-07-26T11:01:21.393Z,32.87
2022-07-26T11:02:26.773Z,32.61
2022-07-26T11:03:43.076Z,32.43
2022-07-26T11:04:44.614Z,32.59
2022-07-26T11:05:46.106Z,32.48
2022-07-26T11:06:53.175Z,32.06
2022-07-26T11:08:10.954Z,31.72
2022-07-26T11:09:13.188Z,31.27
2022-07-26T11:10:14.840Z,30.09
2022-07-26T11:11:30.992Z,30.28
2022-07-26T11:12:32.781Z,30.60
2022-07-26T11:13:36.526Z,30.44
2022-07-26T11:14:38.053Z,30.57
2022-07-26T11:15:43.415Z,30.26
2022-07-26T11:16:47.540Z,30.16
2022-07-26T11:17:49.339Z,30.29
2022-07-26T11:18:52.205Z,30.27
2022-07-26T11:19:54.649Z,30.99
2022-07-26T11:20:58.946Z,31.91
2022-07-26T11:22:01.008Z,32.14
2022-07-26T11:23:03.255Z,31.66
2022-07-26T11:24:05.978Z,31.70
2022-07-26T11:25:08.439Z,31.78
2022-07-26T11:26:12.678Z,31.63
2022-07-26T11:27:14.203Z,31.51
2022-07-26T11:28:15.990Z,31.09
2022-07-26T11:29:38.061Z,31.42
2022-07-26T11:30:56.777Z,30.96
2022-07-26T11:32:04.047Z,31.56
2022-07-26T11:33:18.617Z,31.14
2022-07-26T11:34:24.924Z,30.92
2022-07-26T11:35:29.738Z,30.88
2022-07-26T11:36:43.412Z,30.64
2022-07-26T11:38:11.880Z,30.69
2022-07-26T11:39:16.445Z,30.91
2022-07-26T11:40:18.056Z,30.40
2022-07-26T11:41:34.419Z,29.60
2022-07-26T11:42:36.600Z,29.03
2022-07-26T11:43:39.652Z,28.91
2022-07-26T11:44:45.364Z,28.59
2022-07-26T11:45:52.583Z,28.74
2022-07-26T11:46:54.705Z,28.69
2022-07-26T11:47:58.855Z,28.25
2022-07-26T11:49:01.282Z,27.52
2022-07-26T11:50:15.286Z,28.16
2022-07-26T11:51:22.408Z,27.90
2022-07-26T11:52:30.281Z,27.62
2022-07-26T11:53:37.281Z,28.01
2022-07-26T11:54:50.623Z,28.71
2022-07-26T11:55:52.132Z,28.15
2022-07-26T11:56:57.287Z,28.07
2022-07-26T11:58:06.288Z,28.74
2022-07-26T11:59:13.366Z,28.88
2022-07-26T12:00:15.885Z,28.49
2022-07-26T12:01:21.898Z,28.96
2022-07-26T12:02:23.807Z,28.89
2022-07-26T12:03:25.288Z,28.48
2022-07-26T12:04:33.440Z,28.31
2022-07-26T12:05:35.375Z,28.40
2022-07-26T12:06:38.792Z,28.52
2022-07-26T12:08:05.202Z,27.97
2022-07-26T12:09:07.347Z,27.87
2022-07-26T12:10:16.310Z,28.00
2022-07-26T12:11:19.370Z,28.18
2022-07-26T12:12:31.091Z,28.49
2022-07-26T12:13:39.862Z,28.44
2022-07-26T12:14:58.783Z,28.31
2022-07-26T12:16:00.727Z,28.26
2022-07-26T12:17:15.975Z,28.93
2022-07-26T12:18:27.754Z,28.78
2022-07-26T12:19:30.293Z,28.12
2022-07-26T12:20:31.847Z,28.02
2022-07-26T12:22:07.316Z,27.84
2022-07-26T12:23:08.784Z,27.62
2022-07-26T12:24:13.311Z,27.50
2022-07-26T12:25:25.650Z,27.69
2022-07-26T12:26:30.711Z,27.50
2022-07-26T12:27:33.565Z,27.99
2022-07-26T12:28:41.919Z,27.89
2022-07-26T12:29:45.633Z,28.80
2022-07-26T12:30:47.643Z,29.15
2022-07-26T12:32:06.534Z,29.89
2022-07-26T12:33:10.378Z,29.86
2022-07-26T12:34:12.348Z,30.51
2022-07-26T12:35:16.178Z,30.55
2022-07-26T12:36:26.991Z,30.84
2022-07-26T12:37:40.143Z,31.21
2022-07-26T12:38:44.008Z,30.97
2022-07-26T12:40:01.137Z,30.17
2022-07-26T12:41:02.558Z,30.53
2022-07-26T12:42:33.317Z,30.27
2022-07-26T12:43:42.321Z,29.19
2022-07-26T12:44:50.585Z,28.90
2022-07-26T12:45:52.454Z,29.91
2022-07-26T12:46:53.962Z,30.03
2022-07-26T12:47:57.302Z,30.57
2022-07-26T12:49:00.617Z,30.98
2022-07-26T12:50:04.369Z,31.59
2022-07-26T12:51:06.366Z,31.71
2022-07-26T12:52:07.853Z,31.18
2022-07-26T12:53:09.464Z,30.60
2022-07-26T12:54:14.830Z,30.60
2022-07-26T12:55:21.798Z,30.35
2022-07-26T12:56:23.675Z,30.13
2022-07-26T12:57:25.709Z,30.34
2022-07-26T12:58:27.287Z,29.88
2022-07-26T12:59:28.762Z,29.43
2022-07-26T13:00:30.673Z,29.28
2022-07-26T13:01:32.629Z,29.78
2022-07-26T13:02:34.281Z,29.09
2022-07-26T13:03:35.802Z,29.52
2022-07-26T13:04:37.540Z,29.53
2022-07-26T13:05:39.397Z,29.04
2022-07-26T13:06:40.868Z,29.16
2022-07-26T13:07:42.428Z,29.11
2022-07-26T13:08:43.885Z,28.69
2022-07-26T13:09:46.922Z,29.02
2022-07-26T13:10:48.459Z,29.58
2022-07-26T13:11:50.040Z,29.54
2022-07-26T13:12:51.505Z,28.32
2022-07-26T13:13:53.300Z,28.72
2022-07-26T13:14:54.737Z,28.87
2022-07-26T13:15:56.613Z,28.34
2022-07-26T13:16:58.332Z,29.02
2022-07-26T13:17:59.838Z,28.19
2022-07-26T13:19:01.297Z,28.20
2022-07-26T13:20:02.809Z,28.45
2022-07-26T13:21:04.740Z,28.28
2022-07-26T13:22:07.223Z,28.11
2022-07-26T13:23:13.138Z,28.45
2022-07-26T13:24:17.552Z,28.66
2022-07-26T13:25:21.708Z,28.50
2022-07-26T13:26:23.747Z,28.69
2022-07-26T13:27:25.537Z,28.26
2022-07-26T13:28:36.975Z,28.66
2022-07-26T13:29:38.550Z,28.22
2022-07-26T13:30:43.407Z,28.28
2022-07-26T13:31:45.125Z,27.77
2022-07-26T13:32:46.597Z,28.03
2022-07-26T13:33:48.313Z,27.10
2022-07-26T13:34:49.844Z,27.38
2022-07-26T13:35:51.736Z,27.01
2022-07-26T13:36:53.346Z,27.12
2022-07-26T13:37:54.801Z,27.25
2022-07-26T13:38:56.370Z,26.67
2022-07-26T13:39:57.859Z,26.31
2022-07-26T13:41:00.334Z,27.09
2022-07-26T13:42:02.355Z,27.81
2022-07-26T13:43:04.743Z,27.29
2022-07-26T13:44:06.343Z,26.99
2022-07-26T13:45:08.465Z,26.24
2022-07-26T13:46:10.788Z,26.38